sensor_id;sensor_type;location;lat;lon;timestamp;pressure;altitude;pressure_sealevel;temperature;humidity
40994;BME280;26722;43.212;27.932;2023-06-24T00:01:47;54993.63;;;-146.72;91.61
40994;BME280;26722;43.212;27.932;2023-06-24T00:04:12;54989.41;;;-146.72;91.38
40994;BME280;26722;43.212;27.932;2023-06-24T00:06:40;54991.53;;;-146.72;91.28
40994;BME280;26722;43.212;27.932;2023-06-24T00:09:05;54997.88;;;-146.72;90.86
40994;BME280;26722;43.212;27.932;2023-06-24T00:11:32;54997.88;;;-146.72;90.02
40994;BME280;26722;43.212;27.932;2023-06-24T00:13:57;54993.63;;;-146.72;89.64
40994;BME280;26722;43.212;27.932;2023-06-24T00:16:23;54985.19;;;-146.72;89.62
40994;BME280;26722;43.212;27.932;2023-06-24T00:18:51;54991.53;;;-146.72;88.64
40994;BME280;26722;43.212;27.932;2023-06-24T00:21:18;54989.41;;;-146.72;86.69
40994;BME280;26722;43.212;27.932;2023-06-24T00:23:43;55004.19;;;-146.72;85.51
40994;BME280;26722;43.212;27.932;2023-06-24T00:26:08;54999.97;;;-146.72;84.76
40994;BME280;26722;43.212;27.932;2023-06-24T00:28:33;54999.97;;;-146.72;83.99
40994;BME280;26722;43.212;27.932;2023-06-24T00:30:59;55014.75;;;-146.72;83.29
40994;BME280;26722;43.212;27.932;2023-06-24T00:33:24;55002.09;;;-146.72;83.58
40994;BME280;26722;43.212;27.932;2023-06-24T00:35:49;55006.31;;;-146.72;83.17
40994;BME280;26722;43.212;27.932;2023-06-24T00:38:15;54993.63;;;-146.72;84.15
40994;BME280;26722;43.212;27.932;2023-06-24T00:40:41;54987.31;;;-146.72;83.95
40994;BME280;26722;43.212;27.932;2023-06-24T00:43:07;54993.63;;;-146.72;84.12
40994;BME280;26722;43.212;27.932;2023-06-24T00:45:33;54997.88;;;-146.72;84.17
40994;BME280;26722;43.212;27.932;2023-06-24T00:47:58;55002.09;;;-146.72;84.30
40994;BME280;26722;43.212;27.932;2023-06-24T00:50:24;55023.19;;;-146.72;84.93
40994;BME280;26722;43.212;27.932;2023-06-24T00:52:49;55002.09;;;-146.72;86.22
40994;BME280;26722;43.212;27.932;2023-06-24T00:55:15;55014.75;;;-146.72;86.99
40994;BME280;26722;43.212;27.932;2023-06-24T00:57:41;55002.09;;;-146.72;87.36
40994;BME280;26722;43.212;27.932;2023-06-24T01:00:07;55014.75;;;-146.72;87.68
40994;BME280;26722;43.212;27.932;2023-06-24T01:02:36;55012.63;;;-146.72;88.42
40994;BME280;26722;43.212;27.932;2023-06-24T01:05:02;55016.88;;;-146.72;91.11
40994;BME280;26722;43.212;27.932;2023-06-24T01:07:29;55014.75;;;-146.72;92.58
40994;BME280;26722;43.212;27.932;2023-06-24T01:09:55;55014.75;;;-146.72;94.02
40994;BME280;26722;43.212;27.932;2023-06-24T01:12:20;55010.53;;;-146.72;94.76
40994;BME280;26722;43.212;27.932;2023-06-24T01:14:46;55014.75;;;-146.72;94.79
40994;BME280;26722;43.212;27.932;2023-06-24T01:17:19;55018.97;;;-146.72;95.56
40994;BME280;26722;43.212;27.932;2023-06-24T01:25:02;55012.63;;;-146.72;97.05
40994;BME280;26722;43.212;27.932;2023-06-24T01:27:45;55012.63;;;-146.72;97.88
40994;BME280;26722;43.212;27.932;2023-06-24T01:30:22;55014.75;;;-146.72;98.16
40994;BME280;26722;43.212;27.932;2023-06-24T01:32:54;55027.41;;;-146.72;97.87
40994;BME280;26722;43.212;27.932;2023-06-24T01:35:23;55021.09;;;-146.72;97.58
40994;BME280;26722;43.212;27.932;2023-06-24T01:37:51;55027.41;;;-146.72;97.52
40994;BME280;26722;43.212;27.932;2023-06-24T01:42:43;55027.41;;;-146.72;97.54
40994;BME280;26722;43.212;27.932;2023-06-24T01:45:13;55023.19;;;-146.72;96.56
40994;BME280;26722;43.212;27.932;2023-06-24T01:47:40;55014.75;;;-146.72;94.15
40994;BME280;26722;43.212;27.932;2023-06-24T01:50:06;55025.31;;;-146.72;94.37
40994;BME280;26722;43.212;27.932;2023-06-24T01:52:35;54997.88;;;-146.72;93.77
40994;BME280;26722;43.212;27.932;2023-06-24T01:55:00;55023.19;;;-146.72;92.70
40994;BME280;26722;43.212;27.932;2023-06-24T01:57:27;55023.19;;;-146.72;92.31
40994;BME280;26722;43.212;27.932;2023-06-24T01:59:53;55035.88;;;-146.72;91.62
40994;BME280;26722;43.212;27.932;2023-06-24T02:02:19;55023.19;;;-146.72;89.75
40994;BME280;26722;43.212;27.932;2023-06-24T02:04:46;55031.66;;;-146.72;87.80
40994;BME280;26722;43.212;27.932;2023-06-24T02:07:12;55016.88;;;-146.72;85.60
40994;BME280;26722;43.212;27.932;2023-06-24T02:09:38;55006.31;;;-146.72;83.46
40994;BME280;26722;43.212;27.932;2023-06-24T02:12:04;55025.31;;;-146.72;81.87
40994;BME280;26722;43.212;27.932;2023-06-24T02:14:31;55027.41;;;-146.72;81.59
40994;BME280;26722;43.212;27.932;2023-06-24T02:16:56;55014.75;;;-146.72;81.70
40994;BME280;26722;43.212;27.932;2023-06-24T02:19:24;55040.09;;;-146.72;83.17
40994;BME280;26722;43.212;27.932;2023-06-24T02:21:49;55037.97;;;-146.72;83.42
40994;BME280;26722;43.212;27.932;2023-06-24T02:24:17;55023.19;;;-146.72;83.22
40994;BME280;26722;43.212;27.932;2023-06-24T02:26:43;55035.88;;;-146.72;82.37
40994;BME280;26722;43.212;27.932;2023-06-24T02:29:10;54999.97;;;-146.72;81.83
40994;BME280;26722;43.212;27.932;2023-06-24T02:31:35;55029.53;;;-146.72;81.42
40994;BME280;26722;43.212;27.932;2023-06-24T02:34:01;55012.63;;;-146.72;80.83
40994;BME280;26722;43.212;27.932;2023-06-24T02:36:26;55010.53;;;-146.72;81.30
40994;BME280;26722;43.212;27.932;2023-06-24T02:38:51;55029.53;;;-146.72;81.50
40994;BME280;26722;43.212;27.932;2023-06-24T02:41:17;55006.31;;;-146.72;81.77
40994;BME280;26722;43.212;27.932;2023-06-24T02:43:42;55014.75;;;-146.72;81.46
40994;BME280;26722;43.212;27.932;2023-06-24T02:46:07;55023.19;;;-146.72;81.01
40994;BME280;26722;43.212;27.932;2023-06-24T02:48:33;55010.53;;;-146.72;80.22
40994;BME280;26722;43.212;27.932;2023-06-24T02:50:59;55010.53;;;-146.72;79.96
40994;BME280;26722;43.212;27.932;2023-06-24T02:53:26;55004.19;;;-146.72;79.56
40994;BME280;26722;43.212;27.932;2023-06-24T02:55:52;55012.63;;;-146.72;78.97
40994;BME280;26722;43.212;27.932;2023-06-24T02:58:19;54991.53;;;-146.72;78.75
40994;BME280;26722;43.212;27.932;2023-06-24T03:00:45;55004.19;;;-146.72;78.01
40994;BME280;26722;43.212;27.932;2023-06-24T03:03:10;54980.97;;;-146.72;78.16
40994;BME280;26722;43.212;27.932;2023-06-24T03:05:36;54964.09;;;-146.72;76.16
40994;BME280;26722;43.212;27.932;2023-06-24T03:08:01;54964.09;;;-146.72;72.11
40994;BME280;26722;43.212;27.932;2023-06-24T03:10:28;54947.19;;;-146.72;68.83
40994;BME280;26722;43.212;27.932;2023-06-24T03:12:54;54955.63;;;-146.72;66.48
40994;BME280;26722;43.212;27.932;2023-06-24T03:15:19;54936.63;;;-146.72;64.37
40994;BME280;26722;43.212;27.932;2023-06-24T03:17:44;54923.97;;;-146.72;62.38
40994;BME280;26722;43.212;27.932;2023-06-24T03:20:10;54900.75;;;-146.72;61.59
40994;BME280;26722;43.212;27.932;2023-06-24T03:22:36;54907.09;;;-146.72;59.45
40994;BME280;26722;43.212;27.932;2023-06-24T03:25:01;54902.84;;;-146.72;58.15
40994;BME280;26722;43.212;27.932;2023-06-24T03:27:27;54888.09;;;-146.72;56.45
40994;BME280;26722;43.212;27.932;2023-06-24T03:29:52;54881.75;;;-146.72;55.71
40994;BME280;26722;43.212;27.932;2023-06-24T03:32:17;54883.84;;;-146.72;55.44
40994;BME280;26722;43.212;27.932;2023-06-24T03:34:43;54890.19;;;-146.72;54.63
40994;BME280;26722;43.212;27.932;2023-06-24T03:37:08;54866.97;;;-146.72;52.95
40994;BME280;26722;43.212;27.932;2023-06-24T03:39:33;54866.97;;;-146.72;51.59
40994;BME280;26722;43.212;27.932;2023-06-24T03:41:59;54866.97;;;-146.72;50.42
40994;BME280;26722;43.212;27.932;2023-06-24T03:44:24;54866.97;;;-146.72;49.41
40994;BME280;26722;43.212;27.932;2023-06-24T03:46:50;54854.31;;;-146.72;49.26
40994;BME280;26722;43.212;27.932;2023-06-24T03:49:15;54864.88;;;-146.72;48.57
40994;BME280;26722;43.212;27.932;2023-06-24T03:51:40;54866.97;;;-146.72;48.11
40994;BME280;26722;43.212;27.932;2023-06-24T03:54:05;54850.09;;;-146.72;48.03
40994;BME280;26722;43.212;27.932;2023-06-24T03:56:31;54833.19;;;-146.72;48.00
40994;BME280;26722;43.212;27.932;2023-06-24T03:58:56;54835.31;;;-146.72;47.13
40994;BME280;26722;43.212;27.932;2023-06-24T04:01:21;54837.41;;;-146.72;45.76
40994;BME280;26722;43.212;27.932;2023-06-24T04:03:46;54820.53;;;-146.72;45.47
40994;BME280;26722;43.212;27.932;2023-06-24T04:06:12;54824.75;;;-146.72;44.75
40994;BME280;26722;43.212;27.932;2023-06-24T04:08:37;54831.09;;;-146.72;43.94
40994;BME280;26722;43.212;27.932;2023-06-24T04:11:09;54816.31;;;-146.72;43.97
40994;BME280;26722;43.212;27.932;2023-06-24T04:13:34;54824.75;;;-146.72;43.23
40994;BME280;26722;43.212;27.932;2023-06-24T04:16:00;54820.53;;;-146.72;42.37
40994;BME280;26722;43.212;27.932;2023-06-24T04:18:25;54805.75;;;-146.72;42.17
40994;BME280;26722;43.212;27.932;2023-06-24T04:20:50;54818.41;;;-146.72;42.14
40994;BME280;26722;43.212;27.932;2023-06-24T04:23:16;54820.53;;;-146.72;42.50
40994;BME280;26722;43.212;27.932;2023-06-24T04:25:41;54809.97;;;-146.72;42.46
40994;BME280;26722;43.212;27.932;2023-06-24T04:28:07;54812.09;;;-146.72;42.77
40994;BME280;26722;43.212;27.932;2023-06-24T04:30:32;54820.53;;;-146.72;43.34
40994;BME280;26722;43.212;27.932;2023-06-24T04:33:00;54820.53;;;-146.72;42.70
40994;BME280;26722;43.212;27.932;2023-06-24T04:35:25;54812.09;;;-146.72;42.23
40994;BME280;26722;43.212;27.932;2023-06-24T04:37:50;54812.09;;;-146.72;40.21
40994;BME280;26722;43.212;27.932;2023-06-24T04:40:19;54824.75;;;-146.72;40.14
40994;BME280;26722;43.212;27.932;2023-06-24T04:42:44;54820.53;;;-146.72;40.69
40994;BME280;26722;43.212;27.932;2023-06-24T04:45:10;54837.41;;;-146.72;41.99
40994;BME280;26722;43.212;27.932;2023-06-24T04:47:35;54839.53;;;-146.72;43.45
40994;BME280;26722;43.212;27.932;2023-06-24T04:50:01;54841.63;;;-146.72;44.55
40994;BME280;26722;43.212;27.932;2023-06-24T04:52:26;54850.09;;;-146.72;45.42
40994;BME280;26722;43.212;27.932;2023-06-24T04:54:52;54850.09;;;-146.72;43.95
40994;BME280;26722;43.212;27.932;2023-06-24T04:57:24;54862.75;;;-146.72;45.05
40994;BME280;26722;43.212;27.932;2023-06-24T04:59:49;54862.75;;;-146.72;45.86
40994;BME280;26722;43.212;27.932;2023-06-24T05:02:14;54854.31;;;-146.72;46.73
40994;BME280;26722;43.212;27.932;2023-06-24T05:04:40;54860.63;;;-146.72;46.92
40994;BME280;26722;43.212;27.932;2023-06-24T05:07:06;54875.41;;;-146.72;48.10
40994;BME280;26722;43.212;27.932;2023-06-24T05:09:31;54858.53;;;-146.72;50.47
40994;BME280;26722;43.212;27.932;2023-06-24T05:11:57;54881.75;;;-146.72;51.36
40994;BME280;26722;43.212;27.932;2023-06-24T05:14:22;54881.75;;;-146.72;53.34
40994;BME280;26722;43.212;27.932;2023-06-24T05:16:47;54883.84;;;-146.72;53.80
40994;BME280;26722;43.212;27.932;2023-06-24T05:19:12;54896.53;;;-146.72;54.87
40994;BME280;26722;43.212;27.932;2023-06-24T05:21:38;54877.53;;;-146.72;56.31
40994;BME280;26722;43.212;27.932;2023-06-24T05:24:03;54890.19;;;-146.72;56.41
40994;BME280;26722;43.212;27.932;2023-06-24T05:26:28;54892.31;;;-146.72;56.92
40994;BME280;26722;43.212;27.932;2023-06-24T05:28:54;54890.19;;;-146.72;57.19
40994;BME280;26722;43.212;27.932;2023-06-24T05:31:19;54896.53;;;-146.72;56.15
40994;BME280;26722;43.212;27.932;2023-06-24T05:33:44;54885.97;;;-146.72;56.20
40994;BME280;26722;43.212;27.932;2023-06-24T05:36:09;54885.97;;;-146.72;57.44
40994;BME280;26722;43.212;27.932;2023-06-24T05:38:35;54894.41;;;-146.72;57.83
40994;BME280;26722;43.212;27.932;2023-06-24T05:41:00;54894.41;;;-146.72;58.10
40994;BME280;26722;43.212;27.932;2023-06-24T05:43:27;54888.09;;;-146.72;58.59
40994;BME280;26722;43.212;27.932;2023-06-24T05:45:52;54881.75;;;-146.72;59.10
40994;BME280;26722;43.212;27.932;2023-06-24T05:48:18;54894.41;;;-146.72;59.11
40994;BME280;26722;43.212;27.932;2023-06-24T05:50:43;54900.75;;;-146.72;59.25
40994;BME280;26722;43.212;27.932;2023-06-24T05:53:08;54909.19;;;-146.72;60.24
40994;BME280;26722;43.212;27.932;2023-06-24T05:55:34;54900.75;;;-146.72;60.84
40994;BME280;26722;43.212;27.932;2023-06-24T05:57:59;54888.09;;;-146.72;61.91
40994;BME280;26722;43.212;27.932;2023-06-24T06:00:24;54888.09;;;-146.72;62.08
40994;BME280;26722;43.212;27.932;2023-06-24T06:02:49;54883.84;;;-146.72;61.44
40994;BME280;26722;43.212;27.932;2023-06-24T06:05:15;54885.97;;;-146.72;62.43
40994;BME280;26722;43.212;27.932;2023-06-24T06:07:40;54888.09;;;-146.72;63.41
40994;BME280;26722;43.212;27.932;2023-06-24T06:10:05;54881.75;;;-146.72;64.06
40994;BME280;26722;43.212;27.932;2023-06-24T06:12:31;54892.31;;;-146.72;64.24
40994;BME280;26722;43.212;27.932;2023-06-24T06:14:56;54892.31;;;-146.72;64.19
40994;BME280;26722;43.212;27.932;2023-06-24T06:17:22;54900.75;;;-146.72;64.14
40994;BME280;26722;43.212;27.932;2023-06-24T06:19:47;54892.31;;;-146.72;64.57
40994;BME280;26722;43.212;27.932;2023-06-24T06:22:12;54879.63;;;-146.72;64.00
40994;BME280;26722;43.212;27.932;2023-06-24T06:24:39;54896.53;;;-146.72;63.55
40994;BME280;26722;43.212;27.932;2023-06-24T06:27:04;54902.84;;;-146.72;63.67
40994;BME280;26722;43.212;27.932;2023-06-24T06:29:30;54888.09;;;-146.72;63.63
40994;BME280;26722;43.212;27.932;2023-06-24T06:31:55;54885.97;;;-146.72;64.25
40994;BME280;26722;43.212;27.932;2023-06-24T06:34:22;54877.53;;;-146.72;64.82
40994;BME280;26722;43.212;27.932;2023-06-24T06:36:47;54879.63;;;-146.72;63.24
40994;BME280;26722;43.212;27.932;2023-06-24T06:39:12;54896.53;;;-146.72;63.00
40994;BME280;26722;43.212;27.932;2023-06-24T06:41:37;54888.09;;;-146.72;62.25
40994;BME280;26722;43.212;27.932;2023-06-24T06:44:03;54871.19;;;-146.72;62.85
40994;BME280;26722;43.212;27.932;2023-06-24T06:46:28;54875.41;;;-146.72;64.14
40994;BME280;26722;43.212;27.932;2023-06-24T06:48:53;54896.53;;;-146.72;63.76
40994;BME280;26722;43.212;27.932;2023-06-24T06:51:19;54885.97;;;-146.72;62.03
40994;BME280;26722;43.212;27.932;2023-06-24T06:53:45;54896.53;;;-146.72;62.95
40994;BME280;26722;43.212;27.932;2023-06-24T06:56:17;54888.09;;;-146.72;63.74
40994;BME280;26722;43.212;27.932;2023-06-24T06:58:42;54885.97;;;-146.72;63.30
40994;BME280;26722;43.212;27.932;2023-06-24T07:01:08;54892.31;;;-146.72;62.81
40994;BME280;26722;43.212;27.932;2023-06-24T07:03:33;54894.41;;;-146.72;63.83
40994;BME280;26722;43.212;27.932;2023-06-24T07:05:58;54894.41;;;-146.72;64.52
40994;BME280;26722;43.212;27.932;2023-06-24T07:08:23;54883.84;;;-146.72;63.25
40994;BME280;26722;43.212;27.932;2023-06-24T07:10:49;54883.84;;;-146.72;64.82
40994;BME280;26722;43.212;27.932;2023-06-24T07:13:14;54894.41;;;-146.72;64.00
40994;BME280;26722;43.212;27.932;2023-06-24T07:15:39;54883.84;;;-146.72;64.69
40994;BME280;26722;43.212;27.932;2023-06-24T07:18:05;54883.84;;;-146.72;64.28
40994;BME280;26722;43.212;27.932;2023-06-24T07:20:30;54883.84;;;-146.72;64.98
40994;BME280;26722;43.212;27.932;2023-06-24T07:22:55;54888.09;;;-146.72;61.83
40994;BME280;26722;43.212;27.932;2023-06-24T07:25:20;54875.41;;;-146.72;62.01
40994;BME280;26722;43.212;27.932;2023-06-24T07:27:46;54869.09;;;-146.72;63.38
40994;BME280;26722;43.212;27.932;2023-06-24T07:30:11;54881.75;;;-146.72;62.97
40994;BME280;26722;43.212;27.932;2023-06-24T07:32:36;54866.97;;;-146.72;62.32
40994;BME280;26722;43.212;27.932;2023-06-24T07:35:02;54883.84;;;-146.72;64.90
40994;BME280;26722;43.212;27.932;2023-06-24T07:37:27;54879.63;;;-146.72;65.29
40994;BME280;26722;43.212;27.932;2023-06-24T07:39:52;54871.19;;;-146.72;65.02
40994;BME280;26722;43.212;27.932;2023-06-24T07:42:18;54879.63;;;-146.72;65.28
40994;BME280;26722;43.212;27.932;2023-06-24T07:44:46;54869.09;;;-146.72;65.78
40994;BME280;26722;43.212;27.932;2023-06-24T07:47:11;54875.41;;;-146.72;65.95
40994;BME280;26722;43.212;27.932;2023-06-24T07:49:36;54875.41;;;-146.72;65.26
40994;BME280;26722;43.212;27.932;2023-06-24T07:52:02;54885.97;;;-146.72;64.33
40994;BME280;26722;43.212;27.932;2023-06-24T07:54:27;54879.63;;;-146.72;64.28
40994;BME280;26722;43.212;27.932;2023-06-24T07:56:52;54885.97;;;-146.72;63.94
40994;BME280;26722;43.212;27.932;2023-06-24T07:59:18;54869.09;;;-146.72;64.59
40994;BME280;26722;43.212;27.932;2023-06-24T08:01:43;54869.09;;;-146.72;63.99
40994;BME280;26722;43.212;27.932;2023-06-24T08:04:08;54866.97;;;-146.72;64.03
40994;BME280;26722;43.212;27.932;2023-06-24T08:06:34;54864.88;;;-146.72;63.12
40994;BME280;26722;43.212;27.932;2023-06-24T08:08:59;54879.63;;;-146.72;63.72
40994;BME280;26722;43.212;27.932;2023-06-24T08:11:25;54883.84;;;-146.72;63.58
40994;BME280;26722;43.212;27.932;2023-06-24T08:13:50;54879.63;;;-146.72;63.62
40994;BME280;26722;43.212;27.932;2023-06-24T08:16:16;54871.19;;;-146.72;64.60
40994;BME280;26722;43.212;27.932;2023-06-24T08:18:41;54864.88;;;-146.72;64.15
40994;BME280;26722;43.212;27.932;2023-06-24T08:21:06;54866.97;;;-146.72;64.37
40994;BME280;26722;43.212;27.932;2023-06-24T08:23:32;54885.97;;;-146.72;64.21
40994;BME280;26722;43.212;27.932;2023-06-24T08:25:57;54858.53;;;-146.72;64.52
40994;BME280;26722;43.212;27.932;2023-06-24T08:28:22;54862.75;;;-146.72;64.21
40994;BME280;26722;43.212;27.932;2023-06-24T08:30:47;54866.97;;;-146.72;63.35
40994;BME280;26722;43.212;27.932;2023-06-24T08:33:13;54888.09;;;-146.72;64.82
40994;BME280;26722;43.212;27.932;2023-06-24T08:35:38;54866.97;;;-146.72;65.41
40994;BME280;26722;43.212;27.932;2023-06-24T08:38:03;54864.88;;;-146.72;63.99
40994;BME280;26722;43.212;27.932;2023-06-24T08:40:28;54871.19;;;-146.72;64.84
40994;BME280;26722;43.212;27.932;2023-06-24T08:42:54;54864.88;;;-146.72;62.01
40994;BME280;26722;43.212;27.932;2023-06-24T08:45:20;54866.97;;;-146.72;63.32
40994;BME280;26722;43.212;27.932;2023-06-24T08:47:45;54866.97;;;-146.72;64.29
40994;BME280;26722;43.212;27.932;2023-06-24T08:50:12;54875.41;;;-146.72;63.86
40994;BME280;26722;43.212;27.932;2023-06-24T08:52:45;54862.75;;;-146.72;63.96
40994;BME280;26722;43.212;27.932;2023-06-24T08:55:12;54871.19;;;-146.72;63.84
40994;BME280;26722;43.212;27.932;2023-06-24T08:57:39;54860.63;;;-146.72;62.00
40994;BME280;26722;43.212;27.932;2023-06-24T09:00:05;54862.75;;;-146.72;62.49
40994;BME280;26722;43.212;27.932;2023-06-24T09:02:33;54862.75;;;-146.72;62.27
40994;BME280;26722;43.212;27.932;2023-06-24T09:05:03;54875.41;;;-146.72;60.67
40994;BME280;26722;43.212;27.932;2023-06-24T09:07:28;54854.31;;;-146.72;60.68
40994;BME280;26722;43.212;27.932;2023-06-24T09:09:54;54862.75;;;-146.72;59.93
40994;BME280;26722;43.212;27.932;2023-06-24T09:12:20;54860.63;;;-146.72;59.57
40994;BME280;26722;43.212;27.932;2023-06-24T09:14:48;54854.31;;;-146.72;58.23
40994;BME280;26722;43.212;27.932;2023-06-24T09:17:14;54856.41;;;-146.72;58.34
40994;BME280;26722;43.212;27.932;2023-06-24T09:19:39;54871.19;;;-146.72;56.87
40994;BME280;26722;43.212;27.932;2023-06-24T09:22:06;54858.53;;;-146.72;55.33
40994;BME280;26722;43.212;27.932;2023-06-24T09:24:35;54860.63;;;-146.72;55.51
40994;BME280;26722;43.212;27.932;2023-06-24T09:27:01;54852.19;;;-146.72;56.07
40994;BME280;26722;43.212;27.932;2023-06-24T09:29:33;54866.97;;;-146.72;54.85
40994;BME280;26722;43.212;27.932;2023-06-24T09:31:59;54862.75;;;-146.72;54.70
40994;BME280;26722;43.212;27.932;2023-06-24T09:34:28;54862.75;;;-146.72;55.67
40994;BME280;26722;43.212;27.932;2023-06-24T09:36:54;54856.41;;;-146.72;54.14
40994;BME280;26722;43.212;27.932;2023-06-24T09:39:20;54862.75;;;-146.72;53.77
40994;BME280;26722;43.212;27.932;2023-06-24T09:41:53;54856.41;;;-146.72;53.96
40994;BME280;26722;43.212;27.932;2023-06-24T09:44:19;54866.97;;;-146.72;53.41
40994;BME280;26722;43.212;27.932;2023-06-24T09:46:44;54858.53;;;-146.72;54.52
40994;BME280;26722;43.212;27.932;2023-06-24T09:49:10;54854.31;;;-146.72;54.77
40994;BME280;26722;43.212;27.932;2023-06-24T09:51:39;54858.53;;;-146.72;55.97
40994;BME280;26722;43.212;27.932;2023-06-24T09:54:07;54858.53;;;-146.72;55.96
40994;BME280;26722;43.212;27.932;2023-06-24T09:56:34;54862.75;;;-146.72;56.26
40994;BME280;26722;43.212;27.932;2023-06-24T09:59:01;54866.97;;;-146.72;56.58
40994;BME280;26722;43.212;27.932;2023-06-24T10:01:28;54862.75;;;-146.72;56.33
40994;BME280;26722;43.212;27.932;2023-06-24T10:03:54;54862.75;;;-146.72;56.41
40994;BME280;26722;43.212;27.932;2023-06-24T10:06:19;54847.97;;;-146.72;56.57
40994;BME280;26722;43.212;27.932;2023-06-24T10:08:45;54866.97;;;-146.72;56.57
40994;BME280;26722;43.212;27.932;2023-06-24T10:11:10;54866.97;;;-146.72;56.60
40994;BME280;26722;43.212;27.932;2023-06-24T10:13:35;54860.63;;;-146.72;57.38
40994;BME280;26722;43.212;27.932;2023-06-24T10:16:01;54869.09;;;-146.72;57.75
40994;BME280;26722;43.212;27.932;2023-06-24T10:18:38;54875.41;;;-146.72;57.97
40994;BME280;26722;43.212;27.932;2023-06-24T10:21:05;54854.31;;;-146.72;58.33
40994;BME280;26722;43.212;27.932;2023-06-24T10:26:09;54858.53;;;-146.72;57.48
40994;BME280;26722;43.212;27.932;2023-06-24T10:31:19;54850.09;;;-146.72;57.76
40994;BME280;26722;43.212;27.932;2023-06-24T10:37:04;54856.41;;;-146.72;57.08
40994;BME280;26722;43.212;27.932;2023-06-24T10:45:00;54854.31;;;-146.72;56.49
40994;BME280;26722;43.212;27.932;2023-06-24T10:47:27;54852.19;;;-146.72;57.58
40994;BME280;26722;43.212;27.932;2023-06-24T10:49:52;54864.88;;;-146.72;57.74
40994;BME280;26722;43.212;27.932;2023-06-24T10:52:21;54854.31;;;-146.72;57.56
40994;BME280;26722;43.212;27.932;2023-06-24T10:54:47;54852.19;;;-146.72;58.70
40994;BME280;26722;43.212;27.932;2023-06-24T10:57:13;54860.63;;;-146.72;58.95
40994;BME280;26722;43.212;27.932;2023-06-24T10:59:42;54850.09;;;-146.72;59.07
40994;BME280;26722;43.212;27.932;2023-06-24T11:02:13;54854.31;;;-146.72;59.63
40994;BME280;26722;43.212;27.932;2023-06-24T11:04:48;54852.19;;;-146.72;59.10
40994;BME280;26722;43.212;27.932;2023-06-24T11:07:14;54860.63;;;-146.72;58.45
40994;BME280;26722;43.212;27.932;2023-06-24T11:09:40;54858.53;;;-146.72;58.61
40994;BME280;26722;43.212;27.932;2023-06-24T11:12:07;54847.97;;;-146.72;58.68
40994;BME280;26722;43.212;27.932;2023-06-24T11:14:33;54854.31;;;-146.72;58.78
40994;BME280;26722;43.212;27.932;2023-06-24T11:17:02;54858.53;;;-146.72;59.24
40994;BME280;26722;43.212;27.932;2023-06-24T11:19:29;54852.19;;;-146.72;58.96
40994;BME280;26722;43.212;27.932;2023-06-24T11:21:54;54843.75;;;-146.72;59.24
40994;BME280;26722;43.212;27.932;2023-06-24T11:24:19;54852.19;;;-146.72;58.99
40994;BME280;26722;43.212;27.932;2023-06-24T11:26:45;54847.97;;;-146.72;58.12
40994;BME280;26722;43.212;27.932;2023-06-24T11:29:10;54845.88;;;-146.72;58.19
40994;BME280;26722;43.212;27.932;2023-06-24T11:31:36;54866.97;;;-146.72;57.87
40994;BME280;26722;43.212;27.932;2023-06-24T11:34:02;54850.09;;;-146.72;58.02
40994;BME280;26722;43.212;27.932;2023-06-24T11:36:28;54864.88;;;-146.72;57.65
40994;BME280;26722;43.212;27.932;2023-06-24T11:38:54;54856.41;;;-146.72;58.05
40994;BME280;26722;43.212;27.932;2023-06-24T11:41:20;54862.75;;;-146.72;57.83
40994;BME280;26722;43.212;27.932;2023-06-24T11:43:46;54858.53;;;-146.72;57.74
40994;BME280;26722;43.212;27.932;2023-06-24T11:46:27;54866.97;;;-146.72;57.61
40994;BME280;26722;43.212;27.932;2023-06-24T11:48:52;54864.88;;;-146.72;56.67
40994;BME280;26722;43.212;27.932;2023-06-24T11:51:18;54854.31;;;-146.72;56.77
40994;BME280;26722;43.212;27.932;2023-06-24T11:53:44;54850.09;;;-146.72;56.67
40994;BME280;26722;43.212;27.932;2023-06-24T11:56:13;54850.09;;;-146.72;56.61
40994;BME280;26722;43.212;27.932;2023-06-24T11:58:38;54854.31;;;-146.72;55.47
40994;BME280;26722;43.212;27.932;2023-06-24T12:01:06;54837.41;;;-146.72;56.16
40994;BME280;26722;43.212;27.932;2023-06-24T12:03:32;54845.88;;;-146.72;56.23
40994;BME280;26722;43.212;27.932;2023-06-24T12:05:58;54852.19;;;-146.72;55.79
40994;BME280;26722;43.212;27.932;2023-06-24T12:08:23;54862.75;;;-146.72;55.26
40994;BME280;26722;43.212;27.932;2023-06-24T12:10:49;54845.88;;;-146.72;56.21
40994;BME280;26722;43.212;27.932;2023-06-24T12:13:15;54847.97;;;-146.72;56.74
40994;BME280;26722;43.212;27.932;2023-06-24T12:15:40;54850.09;;;-146.72;56.46
40994;BME280;26722;43.212;27.932;2023-06-24T12:18:06;54871.19;;;-146.72;56.14
40994;BME280;26722;43.212;27.932;2023-06-24T12:20:31;54854.31;;;-146.72;56.27
40994;BME280;26722;43.212;27.932;2023-06-24T12:22:57;54854.31;;;-146.72;57.00
40994;BME280;26722;43.212;27.932;2023-06-24T12:25:23;54850.09;;;-146.72;57.54
40994;BME280;26722;43.212;27.932;2023-06-24T12:27:49;54841.63;;;-146.72;57.09
40994;BME280;26722;43.212;27.932;2023-06-24T12:30:15;54864.88;;;-146.72;57.61
40994;BME280;26722;43.212;27.932;2023-06-24T12:32:41;54854.31;;;-146.72;57.56
40994;BME280;26722;43.212;27.932;2023-06-24T12:35:07;54854.31;;;-146.72;57.58
40994;BME280;26722;43.212;27.932;2023-06-24T12:37:35;54860.63;;;-146.72;58.24
40994;BME280;26722;43.212;27.932;2023-06-24T12:40:01;54858.53;;;-146.72;57.24
40994;BME280;26722;43.212;27.932;2023-06-24T12:42:26;54850.09;;;-146.72;57.97
40994;BME280;26722;43.212;27.932;2023-06-24T12:44:52;54845.88;;;-146.72;57.24
40994;BME280;26722;43.212;27.932;2023-06-24T12:47:17;54856.41;;;-146.72;57.35